sensor_id;sensor_type;location;lat;lon;timestamp;P1;durP1;ratioP1;P2;durP2;ratioP2
26106;SDS011;13866;50.748;12.630;2022-12-17T00:00:06;85.22;;;48.63;;
26106;SDS011;13866;50.748;12.630;2022-12-17T00:02:55;96.65;;;50.45;;
26106;SDS011;13866;50.748;12.630;2022-12-17T00:05:40;83.53;;;51.63;;
26106;SDS011;13866;50.748;12.630;2022-12-17T00:08:24;82.97;;;48.22;;
26106;SDS011;13866;50.748;12.630;2022-12-17T00:11:07;88.82;;;47.92;;
26106;SDS011;13866;50.748;12.630;2022-12-17T00:13:51;92.10;;;48.65;;
26106;SDS011;13866;50.748;12.630;2022-12-17T00:16:36;82.10;;;47.15;;
26106;SDS011;13866;50.748;12.630;2022-12-17T00:19:20;92.45;;;46.25;;
26106;SDS011;13866;50.748;12.630;2022-12-17T00:22:04;76.72;;;46.58;;
26106;SDS011;13866;50.748;12.630;2022-12-17T00:24:48;86.95;;;48.38;;
26106;SDS011;13866;50.748;12.630;2022-12-17T00:27:32;91.95;;;47.08;;
26106;SDS011;13866;50.748;12.630;2022-12-17T00:30:16;84.55;;;45.08;;
26106;SDS011;13866;50.748;12.630;2022-12-17T00:33:00;75.30;;;46.22;;
26106;SDS011;13866;50.748;12.630;2022-12-17T00:35:49;78.03;;;45.30;;
26106;SDS011;13866;50.748;12.630;2022-12-17T00:38:34;74.78;;;44.75;;
26106;SDS011;13866;50.748;12.630;2022-12-17T00:41:18;79.25;;;47.03;;
26106;SDS011;13866;50.748;12.630;2022-12-17T00:44:02;82.68;;;44.97;;
26106;SDS011;13866;50.748;12.630;2022-12-17T00:46:46;78.35;;;44.08;;
26106;SDS011;13866;50.748;12.630;2022-12-17T00:49:30;77.97;;;46.25;;
26106;SDS011;13866;50.748;12.630;2022-12-17T00:52:14;74.20;;;45.50;;
26106;SDS011;13866;50.748;12.630;2022-12-17T00:54:58;77.78;;;47.63;;
26106;SDS011;13866;50.748;12.630;2022-12-17T00:57:43;81.07;;;46.67;;
26106;SDS011;13866;50.748;12.630;2022-12-17T01:00:27;82.38;;;49.10;;
26106;SDS011;13866;50.748;12.630;2022-12-17T01:03:11;84.57;;;46.00;;
26106;SDS011;13866;50.748;12.630;2022-12-17T01:05:55;77.95;;;46.40;;
26106;SDS011;13866;50.748;12.630;2022-12-17T01:08:43;75.15;;;44.78;;
26106;SDS011;13866;50.748;12.630;2022-12-17T01:11:27;78.60;;;44.45;;
26106;SDS011;13866;50.748;12.630;2022-12-17T01:14:12;76.40;;;44.90;;
26106;SDS011;13866;50.748;12.630;2022-12-17T01:16:56;81.88;;;47.55;;
26106;SDS011;13866;50.748;12.630;2022-12-17T01:19:39;75.65;;;46.30;;
26106;SDS011;13866;50.748;12.630;2022-12-17T01:22:23;91.80;;;49.10;;
26106;SDS011;13866;50.748;12.630;2022-12-17T01:25:07;73.38;;;47.00;;
26106;SDS011;13866;50.748;12.630;2022-12-17T01:27:51;82.25;;;47.63;;
26106;SDS011;13866;50.748;12.630;2022-12-17T01:30:36;81.20;;;46.42;;
26106;SDS011;13866;50.748;12.630;2022-12-17T01:33:20;73.22;;;44.85;;
26106;SDS011;13866;50.748;12.630;2022-12-17T01:36:04;76.05;;;44.17;;
26106;SDS011;13866;50.748;12.630;2022-12-17T01:38:48;74.13;;;45.10;;
26106;SDS011;13866;50.748;12.630;2022-12-17T01:41:32;83.63;;;45.35;;
26106;SDS011;13866;50.748;12.630;2022-12-17T01:47:26;90.03;;;45.78;;
26106;SDS011;13866;50.748;12.630;2022-12-17T01:50:14;74.32;;;45.22;;
26106;SDS011;13866;50.748;12.630;2022-12-17T01:53:00;76.40;;;44.70;;
26106;SDS011;13866;50.748;12.630;2022-12-17T01:55:46;77.10;;;46.38;;
26106;SDS011;13866;50.748;12.630;2022-12-17T01:58:32;78.22;;;44.20;;
26106;SDS011;13866;50.748;12.630;2022-12-17T02:01:16;85.18;;;46.70;;
26106;SDS011;13866;50.748;12.630;2022-12-17T02:04:01;79.18;;;44.40;;
26106;SDS011;13866;50.748;12.630;2022-12-17T02:06:47;103.70;;;49.45;;
26106;SDS011;13866;50.748;12.630;2022-12-17T02:09:45;87.57;;;46.45;;
26106;SDS011;13866;50.748;12.630;2022-12-17T02:12:46;93.63;;;46.72;;
26106;SDS011;13866;50.748;12.630;2022-12-17T02:18:37;84.70;;;48.38;;
26106;SDS011;13866;50.748;12.630;2022-12-17T02:21:26;86.55;;;45.92;;
26106;SDS011;13866;50.748;12.630;2022-12-17T02:24:16;96.10;;;48.60;;
26106;SDS011;13866;50.748;12.630;2022-12-17T02:27:13;100.28;;;48.47;;
26106;SDS011;13866;50.748;12.630;2022-12-17T02:30:03;110.15;;;51.60;;
26106;SDS011;13866;50.748;12.630;2022-12-17T02:32:49;89.43;;;45.70;;
26106;SDS011;13866;50.748;12.630;2022-12-17T02:38:52;99.97;;;48.00;;
26106;SDS011;13866;50.748;12.630;2022-12-17T02:41:41;108.75;;;50.55;;
26106;SDS011;13866;50.748;12.630;2022-12-17T02:44:31;88.15;;;46.80;;
26106;SDS011;13866;50.748;12.630;2022-12-17T02:47:16;92.63;;;47.47;;
26106;SDS011;13866;50.748;12.630;2022-12-17T02:50:02;91.72;;;48.58;;
26106;SDS011;13866;50.748;12.630;2022-12-17T02:52:47;105.60;;;50.00;;
26106;SDS011;13866;50.748;12.630;2022-12-17T02:55:33;91.07;;;49.25;;
26106;SDS011;13866;50.748;12.630;2022-12-17T02:58:18;97.07;;;50.25;;
26106;SDS011;13866;50.748;12.630;2022-12-17T03:01:02;111.38;;;48.85;;
26106;SDS011;13866;50.748;12.630;2022-12-17T03:03:46;96.95;;;47.28;;
26106;SDS011;13866;50.748;12.630;2022-12-17T03:06:30;97.25;;;51.55;;
26106;SDS011;13866;50.748;12.630;2022-12-17T03:09:14;83.57;;;48.30;;
26106;SDS011;13866;50.748;12.630;2022-12-17T03:11:58;96.93;;;45.90;;
26106;SDS011;13866;50.748;12.630;2022-12-17T03:14:42;108.10;;;49.13;;
26106;SDS011;13866;50.748;12.630;2022-12-17T03:17:27;91.10;;;47.17;;
26106;SDS011;13866;50.748;12.630;2022-12-17T03:20:12;99.75;;;48.70;;
26106;SDS011;13866;50.748;12.630;2022-12-17T03:23:00;86.72;;;44.88;;
26106;SDS011;13866;50.748;12.630;2022-12-17T03:25:45;103.15;;;47.55;;
26106;SDS011;13866;50.748;12.630;2022-12-17T03:28:29;96.88;;;48.85;;
26106;SDS011;13866;50.748;12.630;2022-12-17T03:31:14;96.28;;;48.05;;
26106;SDS011;13866;50.748;12.630;2022-12-17T03:33:57;82.03;;;45.28;;
26106;SDS011;13866;50.748;12.630;2022-12-17T03:36:42;102.35;;;46.50;;
26106;SDS011;13866;50.748;12.630;2022-12-17T03:39:26;92.15;;;45.00;;
26106;SDS011;13866;50.748;12.630;2022-12-17T03:42:10;98.22;;;48.60;;
26106;SDS011;13866;50.748;12.630;2022-12-17T03:44:54;89.43;;;46.67;;
26106;SDS011;13866;50.748;12.630;2022-12-17T03:47:37;88.15;;;46.53;;
26106;SDS011;13866;50.748;12.630;2022-12-17T03:50:21;85.65;;;46.30;;
26106;SDS011;13866;50.748;12.630;2022-12-17T03:53:06;91.15;;;46.90;;
26106;SDS011;13866;50.748;12.630;2022-12-17T03:55:50;91.22;;;46.58;;
26106;SDS011;13866;50.748;12.630;2022-12-17T03:58:34;96.63;;;47.92;;
26106;SDS011;13866;50.748;12.630;2022-12-17T04:01:17;106.20;;;47.50;;
26106;SDS011;13866;50.748;12.630;2022-12-17T04:04:01;87.10;;;48.33;;
26106;SDS011;13866;50.748;12.630;2022-12-17T04:06:45;82.95;;;46.63;;
26106;SDS011;13866;50.748;12.630;2022-12-17T04:09:29;94.07;;;47.75;;
26106;SDS011;13866;50.748;12.630;2022-12-17T04:12:13;98.80;;;48.10;;
26106;SDS011;13866;50.748;12.630;2022-12-17T04:14:57;107.90;;;50.00;;
26106;SDS011;13866;50.748;12.630;2022-12-17T04:17:41;104.13;;;49.95;;
26106;SDS011;13866;50.748;12.630;2022-12-17T04:20:25;87.78;;;46.28;;
26106;SDS011;13866;50.748;12.630;2022-12-17T04:23:09;100.50;;;49.72;;
26106;SDS011;13866;50.748;12.630;2022-12-17T04:25:53;115.28;;;49.33;;
26106;SDS011;13866;50.748;12.630;2022-12-17T04:28:37;117.55;;;51.30;;
26106;SDS011;13866;50.748;12.630;2022-12-17T04:31:21;101.95;;;48.75;;
26106;SDS011;13866;50.748;12.630;2022-12-17T04:34:05;86.40;;;45.58;;
26106;SDS011;13866;50.748;12.630;2022-12-17T04:36:49;108.55;;;52.10;;
26106;SDS011;13866;50.748;12.630;2022-12-17T04:39:33;111.15;;;51.47;;
26106;SDS011;13866;50.748;12.630;2022-12-17T04:42:17;95.50;;;48.97;;
26106;SDS011;13866;50.748;12.630;2022-12-17T04:45:01;116.10;;;54.47;;
26106;SDS011;13866;50.748;12.630;2022-12-17T04:47:45;126.72;;;53.22;;
26106;SDS011;13866;50.748;12.630;2022-12-17T04:50:29;109.90;;;52.50;;
26106;SDS011;13866;50.748;12.630;2022-12-17T04:53:13;130.65;;;53.33;;
26106;SDS011;13866;50.748;12.630;2022-12-17T04:55:57;119.60;;;52.53;;
26106;SDS011;13866;50.748;12.630;2022-12-17T04:58:41;125.90;;;55.63;;
26106;SDS011;13866;50.748;12.630;2022-12-17T05:01:26;114.63;;;52.47;;
26106;SDS011;13866;50.748;12.630;2022-12-17T05:04:10;153.77;;;55.72;;
26106;SDS011;13866;50.748;12.630;2022-12-17T05:06:54;133.88;;;53.97;;
26106;SDS011;13866;50.748;12.630;2022-12-17T05:09:38;131.50;;;57.03;;
26106;SDS011;13866;50.748;12.630;2022-12-17T05:12:22;144.57;;;56.38;;
26106;SDS011;13866;50.748;12.630;2022-12-17T05:15:06;123.47;;;55.08;;
26106;SDS011;13866;50.748;12.630;2022-12-17T05:17:50;137.15;;;53.53;;
26106;SDS011;13866;50.748;12.630;2022-12-17T05:20:34;163.52;;;53.28;;
26106;SDS011;13866;50.748;12.630;2022-12-17T05:23:18;143.30;;;58.13;;
26106;SDS011;13866;50.748;12.630;2022-12-17T05:26:16;144.10;;;56.28;;
26106;SDS011;13866;50.748;12.630;2022-12-17T05:29:05;173.93;;;57.15;;
26106;SDS011;13866;50.748;12.630;2022-12-17T05:31:49;154.05;;;59.33;;
26106;SDS011;13866;50.748;12.630;2022-12-17T05:34:34;178.82;;;58.33;;
26106;SDS011;13866;50.748;12.630;2022-12-17T05:37:18;162.60;;;60.58;;
26106;SDS011;13866;50.748;12.630;2022-12-17T05:40:03;173.82;;;56.50;;
26106;SDS011;13866;50.748;12.630;2022-12-17T05:42:54;142.38;;;53.92;;
26106;SDS011;13866;50.748;12.630;2022-12-17T05:45:40;163.20;;;57.97;;
26106;SDS011;13866;50.748;12.630;2022-12-17T05:48:24;174.40;;;62.72;;
26106;SDS011;13866;50.748;12.630;2022-12-17T05:51:09;152.57;;;57.85;;
26106;SDS011;13866;50.748;12.630;2022-12-17T05:53:53;176.27;;;62.50;;
26106;SDS011;13866;50.748;12.630;2022-12-17T05:56:37;176.50;;;59.38;;
26106;SDS011;13866;50.748;12.630;2022-12-17T05:59:21;156.52;;;60.38;;
26106;SDS011;13866;50.748;12.630;2022-12-17T06:02:05;169.85;;;64.30;;
26106;SDS011;13866;50.748;12.630;2022-12-17T06:04:50;198.77;;;61.83;;
26106;SDS011;13866;50.748;12.630;2022-12-17T06:07:34;165.05;;;56.58;;
26106;SDS011;13866;50.748;12.630;2022-12-17T06:10:18;191.88;;;61.72;;
26106;SDS011;13866;50.748;12.630;2022-12-17T06:13:02;161.20;;;57.30;;
26106;SDS011;13866;50.748;12.630;2022-12-17T06:15:49;176.70;;;59.28;;
26106;SDS011;13866;50.748;12.630;2022-12-17T06:18:34;162.38;;;61.50;;
26106;SDS011;13866;50.748;12.630;2022-12-17T06:21:18;197.95;;;63.60;;
26106;SDS011;13866;50.748;12.630;2022-12-17T06:24:02;160.88;;;59.15;;
26106;SDS011;13866;50.748;12.630;2022-12-17T06:26:47;162.43;;;59.58;;
26106;SDS011;13866;50.748;12.630;2022-12-17T06:29:31;191.40;;;60.72;;
26106;SDS011;13866;50.748;12.630;2022-12-17T06:32:15;176.65;;;61.47;;
26106;SDS011;13866;50.748;12.630;2022-12-17T06:34:59;180.57;;;57.70;;
26106;SDS011;13866;50.748;12.630;2022-12-17T06:37:43;182.55;;;58.17;;
26106;SDS011;13866;50.748;12.630;2022-12-17T06:40:27;155.40;;;56.50;;
26106;SDS011;13866;50.748;12.630;2022-12-17T06:43:11;162.98;;;59.25;;
26106;SDS011;13866;50.748;12.630;2022-12-17T06:45:55;164.50;;;59.10;;
26106;SDS011;13866;50.748;12.630;2022-12-17T06:48:39;182.75;;;61.00;;
26106;SDS011;13866;50.748;12.630;2022-12-17T06:51:23;156.27;;;57.75;;
26106;SDS011;13866;50.748;12.630;2022-12-17T06:54:07;168.48;;;61.20;;
26106;SDS011;13866;50.748;12.630;2022-12-17T06:56:51;182.95;;;57.15;;
26106;SDS011;13866;50.748;12.630;2022-12-17T06:59:35;167.27;;;60.08;;
26106;SDS011;13866;50.748;12.630;2022-12-17T07:02:19;170.95;;;59.88;;
26106;SDS011;13866;50.748;12.630;2022-12-17T07:05:03;150.85;;;52.25;;
26106;SDS011;13866;50.748;12.630;2022-12-17T07:07:47;149.35;;;56.22;;
26106;SDS011;13866;50.748;12.630;2022-12-17T07:10:31;169.10;;;59.30;;
26106;SDS011;13866;50.748;12.630;2022-12-17T07:13:15;179.35;;;55.85;;
26106;SDS011;13866;50.748;12.630;2022-12-17T07:15:59;169.45;;;52.40;;
26106;SDS011;13866;50.748;12.630;2022-12-17T07:18:43;165.50;;;55.42;;
26106;SDS011;13866;50.748;12.630;2022-12-17T07:21:27;177.43;;;58.17;;
26106;SDS011;13866;50.748;12.630;2022-12-17T07:24:11;160.13;;;55.17;;
26106;SDS011;13866;50.748;12.630;2022-12-17T07:26:55;169.27;;;54.70;;
26106;SDS011;13866;50.748;12.630;2022-12-17T07:29:39;178.98;;;55.92;;
26106;SDS011;13866;50.748;12.630;2022-12-17T07:32:23;169.38;;;57.47;;
26106;SDS011;13866;50.748;12.630;2022-12-17T07:35:07;157.63;;;51.17;;
26106;SDS011;13866;50.748;12.630;2022-12-17T07:37:58;153.93;;;53.03;;
26106;SDS011;13866;50.748;12.630;2022-12-17T07:40:43;175.20;;;53.85;;
26106;SDS011;13866;50.748;12.630;2022-12-17T07:43:27;176.00;;;51.88;;
26106;SDS011;13866;50.748;12.630;2022-12-17T07:46:11;161.88;;;53.63;;
26106;SDS011;13866;50.748;12.630;2022-12-17T07:48:56;172.65;;;53.00;;
26106;SDS011;13866;50.748;12.630;2022-12-17T07:51:40;151.73;;;48.72;;
26106;SDS011;13866;50.748;12.630;2022-12-17T07:54:24;158.25;;;51.70;;
26106;SDS011;13866;50.748;12.630;2022-12-17T07:57:08;155.48;;;54.13;;
26106;SDS011;13866;50.748;12.630;2022-12-17T07:59:51;173.27;;;53.53;;
26106;SDS011;13866;50.748;12.630;2022-12-17T08:03:09;150.02;;;52.65;;
26106;SDS011;13866;50.748;12.630;2022-12-17T08:05:55;132.80;;;48.78;;
26106;SDS011;13866;50.748;12.630;2022-12-17T08:08:40;146.05;;;52.63;;
26106;SDS011;13866;50.748;12.630;2022-12-17T08:11:24;136.35;;;46.70;;
26106;SDS011;13866;50.748;12.630;2022-12-17T08:14:09;149.13;;;47.47;;
26106;SDS011;13866;50.748;12.630;2022-12-17T08:16:53;135.88;;;46.20;;
26106;SDS011;13866;50.748;12.630;2022-12-17T08:19:37;117.25;;;41.78;;
26106;SDS011;13866;50.748;12.630;2022-12-17T08:22:21;112.95;;;42.13;;
26106;SDS011;13866;50.748;12.630;2022-12-17T08:25:05;117.40;;;45.22;;
26106;SDS011;13866;50.748;12.630;2022-12-17T08:27:54;127.13;;;43.45;;
26106;SDS011;13866;50.748;12.630;2022-12-17T08:30:42;133.20;;;46.25;;
26106;SDS011;13866;50.748;12.630;2022-12-17T08:33:30;131.95;;;45.63;;
26106;SDS011;13866;50.748;12.630;2022-12-17T08:36:14;122.90;;;45.85;;
26106;SDS011;13866;50.748;12.630;2022-12-17T08:38:58;134.05;;;44.20;;
26106;SDS011;13866;50.748;12.630;2022-12-17T08:41:42;126.57;;;45.05;;
26106;SDS011;13866;50.748;12.630;2022-12-17T08:44:26;152.45;;;47.25;;
26106;SDS011;13866;50.748;12.630;2022-12-17T08:47:10;123.95;;;47.15;;
26106;SDS011;13866;50.748;12.630;2022-12-17T08:49:54;127.80;;;41.42;;
26106;SDS011;13866;50.748;12.630;2022-12-17T08:52:38;115.65;;;41.10;;
26106;SDS011;13866;50.748;12.630;2022-12-17T08:55:22;119.07;;;38.85;;
26106;SDS011;13866;50.748;12.630;2022-12-17T08:58:06;98.65;;;38.20;;
26106;SDS011;13866;50.748;12.630;2022-12-17T09:00:51;56.45;;;29.23;;
26106;SDS011;13866;50.748;12.630;2022-12-17T09:03:35;71.03;;;29.20;;
26106;SDS011;13866;50.748;12.630;2022-12-17T09:06:19;66.97;;;28.25;;
26106;SDS011;13866;50.748;12.630;2022-12-17T09:09:03;65.47;;;29.65;;
26106;SDS011;13866;50.748;12.630;2022-12-17T09:11:51;50.97;;;26.17;;
26106;SDS011;13866;50.748;12.630;2022-12-17T09:14:35;44.05;;;21.70;;
26106;SDS011;13866;50.748;12.630;2022-12-17T09:17:20;34.15;;;20.70;;
26106;SDS011;13866;50.748;12.630;2022-12-17T09:20:04;29.55;;;18.77;;
26106;SDS011;13866;50.748;12.630;2022-12-17T09:22:48;35.85;;;21.35;;
26106;SDS011;13866;50.748;12.630;2022-12-17T09:25:32;35.83;;;19.60;;
26106;SDS011;13866;50.748;12.630;2022-12-17T09:28:16;33.42;;;20.60;;
26106;SDS011;13866;50.748;12.630;2022-12-17T09:31:00;29.67;;;19.15;;
26106;SDS011;13866;50.748;12.630;2022-12-17T09:33:44;29.50;;;18.23;;
26106;SDS011;13866;50.748;12.630;2022-12-17T09:39:00;38.90;;;20.80;;
26106;SDS011;13866;50.748;12.630;2022-12-17T09:44:58;38.17;;;21.55;;
26106;SDS011;13866;50.748;12.630;2022-12-17T09:48:04;36.25;;;21.73;;
26106;SDS011;13866;50.748;12.630;2022-12-17T09:50:54;34.47;;;19.55;;
26106;SDS011;13866;50.748;12.630;2022-12-17T09:56:27;30.55;;;19.67;;
26106;SDS011;13866;50.748;12.630;2022-12-17T09:59:55;34.88;;;20.25;;
26106;SDS011;13866;50.748;12.630;2022-12-17T10:02:24;33.50;;;21.50;;
26106;SDS011;13866;50.748;12.630;2022-12-17T10:05:13;27.98;;;20.10;;
26106;SDS011;13866;50.748;12.630;2022-12-17T10:08:08;33.97;;;20.45;;
26106;SDS011;13866;50.748;12.630;2022-12-17T10:10:57;43.88;;;22.45;;
26106;SDS011;13866;50.748;12.630;2022-12-17T10:13:53;36.20;;;22.67;;
26106;SDS011;13866;50.748;12.630;2022-12-17T10:16:38;43.80;;;25.05;;
26106;SDS011;13866;50.748;12.630;2022-12-17T10:19:30;46.42;;;26.33;;
26106;SDS011;13866;50.748;12.630;2022-12-17T10:22:17;54.45;;;32.35;;
26106;SDS011;13866;50.748;12.630;2022-12-17T10:25:23;59.83;;;28.77;;
26106;SDS011;13866;50.748;12.630;2022-12-17T10:28:14;50.25;;;25.75;;
26106;SDS011;13866;50.748;12.630;2022-12-17T10:30:59;44.67;;;26.60;;
26106;SDS011;13866;50.748;12.630;2022-12-17T10:33:44;43.95;;;25.15;;
26106;SDS011;13866;50.748;12.630;2022-12-17T10:36:29;46.90;;;25.95;;
26106;SDS011;13866;50.748;12.630;2022-12-17T10:39:15;39.85;;;23.58;;
26106;SDS011;13866;50.748;12.630;2022-12-17T10:42:01;31.60;;;20.30;;
26106;SDS011;13866;50.748;12.630;2022-12-17T10:45:18;39.40;;;21.77;;
26106;SDS011;13866;50.748;12.630;2022-12-17T10:48:04;50.78;;;27.40;;
26106;SDS011;13866;50.748;12.630;2022-12-17T10:50:59;73.90;;;38.42;;
26106;SDS011;13866;50.748;12.630;2022-12-17T10:53:47;44.65;;;27.45;;
26106;SDS011;13866;50.748;12.630;2022-12-17T10:56:34;45.17;;;26.98;;
26106;SDS011;13866;50.748;12.630;2022-12-17T10:59:30;33.50;;;22.98;;
26106;SDS011;13866;50.748;12.630;2022-12-17T11:02:21;48.88;;;26.08;;
26106;SDS011;13866;50.748;12.630;2022-12-17T11:05:28;37.92;;;21.33;;
26106;SDS011;13866;50.748;12.630;2022-12-17T11:08:17;49.70;;;31.50;;
26106;SDS011;13866;50.748;12.630;2022-12-17T11:11:01;45.53;;;32.03;;
26106;SDS011;13866;50.748;12.630;2022-12-17T11:13:49;54.17;;;28.42;;
26106;SDS011;13866;50.748;12.630;2022-12-17T11:16:39;49.65;;;23.80;;
26106;SDS011;13866;50.748;12.630;2022-12-17T11:19:47;51.50;;;25.83;;
26106;SDS011;13866;50.748;12.630;2022-12-17T11:28:25;27.65;;;20.23;;
26106;SDS011;13866;50.748;12.630;2022-12-17T11:34:07;27.40;;;16.38;;
26106;SDS011;13866;50.748;12.630;2022-12-17T11:40:02;29.20;;;19.23;;
26106;SDS011;13866;50.748;12.630;2022-12-17T11:42:56;27.67;;;19.65;;
26106;SDS011;13866;50.748;12.630;2022-12-17T11:55:33;39.47;;;23.00;;
26106;SDS011;13866;50.748;12.630;2022-12-17T11:58:33;31.63;;;19.85;;
26106;SDS011;13866;50.748;12.630;2022-12-17T12:01:27;33.15;;;20.38;;
26106;SDS011;13866;50.748;12.630;2022-12-17T12:07:46;36.95;;;21.23;;
26106;SDS011;13866;50.748;12.630;2022-12-17T12:13:37;27.92;;;19.58;;
26106;SDS011;13866;50.748;12.630;2022-12-17T12:16:44;26.42;;;17.60;;
26106;SDS011;13866;50.748;12.630;2022-12-17T12:26:08;28.23;;;17.33;;
26106;SDS011;13866;50.748;12.630;2022-12-17T12:29:26;27.27;;;19.50;;
26106;SDS011;13866;50.748;12.630;2022-12-17T12:32:20;35.85;;;21.30;;
26106;SDS011;13866;50.748;12.630;2022-12-17T12:35:12;31.13;;;20.63;;
26106;SDS011;13866;50.748;12.630;2022-12-17T12:38:00;33.80;;;20.02;;
26106;SDS011;13866;50.748;12.630;2022-12-17T12:40:46;31.92;;;19.75;;
26106;SDS011;13866;50.748;12.630;2022-12-17T12:43:42;27.58;;;18.48;;
26106;SDS011;13866;50.748;12.630;2022-12-17T12:46:41;29.73;;;19.65;;
26106;SDS011;13866;50.748;12.630;2022-12-17T12:49:33;27.88;;;17.55;;
26106;SDS011;13866;50.748;12.630;2022-12-17T12:52:24;26.15;;;19.50;;
26106;SDS011;13866;50.748;12.630;2022-12-17T12:55:10;38.53;;;24.90;;
26106;SDS011;13866;50.748;12.630;2022-12-17T13:06:40;27.80;;;18.60;;
26106;SDS011;13866;50.748;12.630;2022-12-17T13:11:56;27.98;;;20.08;;
26106;SDS011;13866;50.748;12.630;2022-12-17T13:14:58;31.92;;;20.08;;
26106;SDS011;13866;50.748;12.630;2022-12-17T13:17:34;24.92;;;18.70;;
26106;SDS011;13866;50.748;12.630;2022-12-17T13:22:52;26.27;;;18.27;;
26106;SDS011;13866;50.748;12.630;2022-12-17T13:25:29;24.17;;;18.38;;
26106;SDS011;13866;50.748;12.630;2022-12-17T13:27:55;29.07;;;18.33;;
26106;SDS011;13866;50.748;12.630;2022-12-17T13:30:22;27.03;;;18.90;;
26106;SDS011;13866;50.748;12.630;2022-12-17T13:33:17;35.05;;;19.45;;
26106;SDS011;13866;50.748;12.630;2022-12-17T13:35:58;27.30;;;20.52;;
26106;SDS011;13866;50.748;12.630;2022-12-17T13:38:34;33.00;;;18.02;;
26106;SDS011;13866;50.748;12.630;2022-12-17T13:41:20;30.95;;;18.13;;
26106;SDS011;13866;50.748;12.630;2022-12-17T13:43:56;22.60;;;17.08;;
26106;SDS011;13866;50.748;12.630;2022-12-17T13:46:49;24.75;;;18.88;;
26106;SDS011;13866;50.748;12.630;2022-12-17T13:49:18;25.80;;;18.90;;
26106;SDS011;13866;50.748;12.630;2022-12-17T13:51:44;25.55;;;18.52;;
26106;SDS011;13866;50.748;12.630;2022-12-17T13:54:17;36.00;;;24.83;;
26106;SDS011;13866;50.748;12.630;2022-12-17T13:56:43;26.40;;;21.27;;
26106;SDS011;13866;50.748;12.630;2022-12-17T13:59:20;26.95;;;18.60;;
26106;SDS011;13866;50.748;12.630;2022-12-17T14:01:49;27.15;;;19.08;;
26106;SDS011;13866;50.748;12.630;2022-12-17T14:04:19;18.90;;;15.20;;
26106;SDS011;13866;50.748;12.630;2022-12-17T14:06:46;18.58;;;16.63;;
26106;SDS011;13866;50.748;12.630;2022-12-17T14:09:16;21.88;;;18.13;;
26106;SDS011;13866;50.748;12.630;2022-12-17T14:11:44;32.78;;;21.77;;
26106;SDS011;13866;50.748;12.630;2022-12-17T14:14:30;24.63;;;19.00;;
26106;SDS011;13866;50.748;12.630;2022-12-17T14:17:01;22.05;;;18.10;;
26106;SDS011;13866;50.748;12.630;2022-12-17T14:19:27;29.77;;;20.90;;
26106;SDS011;13866;50.748;12.630;2022-12-17T14:21:53;32.33;;;21.38;;
26106;SDS011;13866;50.748;12.630;2022-12-17T14:24:21;31.90;;;22.15;;
26106;SDS011;13866;50.748;12.630;2022-12-17T14:26:57;40.15;;;26.98;;
26106;SDS011;13866;50.748;12.630;2022-12-17T14:29:25;59.67;;;35.53;;
26106;SDS011;13866;50.748;12.630;2022-12-17T14:31:57;31.70;;;22.60;;
26106;SDS011;13866;50.748;12.630;2022-12-17T14:34:24;27.70;;;19.42;;
26106;SDS011;13866;50.748;12.630;2022-12-17T14:36:54;30.37;;;22.63;;
26106;SDS011;13866;50.748;12.630;2022-12-17T14:39:28;46.65;;;26.02;;
26106;SDS011;13866;50.748;12.630;2022-12-17T14:41:57;34.30;;;22.48;;
26106;SDS011;13866;50.748;12.630;2022-12-17T14:44:50;21.65;;;16.20;;
26106;SDS011;13866;50.748;12.630;2022-12-17T14:49:52;41.53;;;22.50;;
26106;SDS011;13866;50.748;12.630;2022-12-17T14:52:37;26.10;;;17.63;;
26106;SDS011;13866;50.748;12.630;2022-12-17T14:57:51;23.52;;;15.00;;
26106;SDS011;13866;50.748;12.630;2022-12-17T15:00:29;20.60;;;17.50;;
26106;SDS011;13866;50.748;12.630;2022-12-17T15:02:55;24.90;;;19.50;;
26106;SDS011;13866;50.748;12.630;2022-12-17T15:05:20;28.50;;;17.97;;
26106;SDS011;13866;50.748;12.630;2022-12-17T15:07:46;22.40;;;17.57;;
26106;SDS011;13866;50.748;12.630;2022-12-17T15:10:13;26.17;;;19.70;;
26106;SDS011;13866;50.748;12.630;2022-12-17T15:12:41;29.58;;;18.65;;
26106;SDS011;13866;50.748;12.630;2022-12-17T15:15:11;27.45;;;18.75;;
26106;SDS011;13866;50.748;12.630;2022-12-17T15:17:37;29.08;;;20.30;;
26106;SDS011;13866;50.748;12.630;2022-12-17T15:20:03;34.33;;;28.40;;
26106;SDS011;13866;50.748;12.630;2022-12-17T15:22:29;29.77;;;20.20;;
26106;SDS011;13866;50.748;12.630;2022-12-17T15:24:54;28.23;;;19.60;;
26106;SDS011;13866;50.748;12.630;2022-12-17T15:27:20;32.23;;;21.30;;
26106;SDS011;13866;50.748;12.630;2022-12-17T15:29:46;31.70;;;21.30;;
26106;SDS011;13866;50.748;12.630;2022-12-17T15:32:18;39.63;;;24.50;;
26106;SDS011;13866;50.748;12.630;2022-12-17T15:34:45;32.63;;;22.77;;
26106;SDS011;13866;50.748;12.630;2022-12-17T15:37:10;25.70;;;18.80;;
26106;SDS011;13866;50.748;12.630;2022-12-17T15:39:36;25.80;;;18.30;;
26106;SDS011;13866;50.748;12.630;2022-12-17T15:42:02;27.23;;;18.80;;
26106;SDS011;13866;50.748;12.630;2022-12-17T15:44:46;26.90;;;21.45;;
26106;SDS011;13866;50.748;12.630;2022-12-17T15:47:11;38.47;;;26.00;;
26106;SDS011;13866;50.748;12.630;2022-12-17T15:49:37;55.43;;;32.67;;
26106;SDS011;13866;50.748;12.630;2022-12-17T15:52:02;113.63;;;50.70;;
26106;SDS011;13866;50.748;12.630;2022-12-17T15:54:28;96.43;;;44.40;;
26106;SDS011;13866;50.748;12.630;2022-12-17T15:56:53;36.17;;;22.23;;
26106;SDS011;13866;50.748;12.630;2022-12-17T15:59:19;39.33;;;23.60;;
26106;SDS011;13866;50.748;12.630;2022-12-17T16:01:46;67.50;;;34.53;;
26106;SDS011;13866;50.748;12.630;2022-12-17T16:04:11;64.53;;;37.97;;
26106;SDS011;13866;50.748;12.630;2022-12-17T16:06:37;58.30;;;34.80;;
26106;SDS011;13866;50.748;12.630;2022-12-17T16:09:03;58.13;;;34.50;;
26106;SDS011;13866;50.748;12.630;2022-12-17T16:11:28;28.07;;;20.90;;
26106;SDS011;13866;50.748;12.630;2022-12-17T16:13:54;29.70;;;19.57;;
26106;SDS011;13866;50.748;12.630;2022-12-17T16:16:20;33.35;;;23.00;;
26106;SDS011;13866;50.748;12.630;2022-12-17T16:18:46;30.30;;;20.63;;
26106;SDS011;13866;50.748;12.630;2022-12-17T16:21:12;27.73;;;20.10;;
26106;SDS011;13866;50.748;12.630;2022-12-17T16:23:37;32.80;;;22.70;;
26106;SDS011;13866;50.748;12.630;2022-12-17T16:26:03;43.00;;;26.17;;
26106;SDS011;13866;50.748;12.630;2022-12-17T16:28:30;24.92;;;19.20;;
26106;SDS011;13866;50.748;12.630;2022-12-17T16:31:03;34.50;;;25.37;;
26106;SDS011;13866;50.748;12.630;2022-12-17T16:33:32;45.20;;;28.67;;
26106;SDS011;13866;50.748;12.630;2022-12-17T16:35:59;27.77;;;21.58;;
26106;SDS011;13866;50.748;12.630;2022-12-17T16:38:24;61.00;;;34.97;;
26106;SDS011;13866;50.748;12.630;2022-12-17T16:40:53;45.97;;;30.07;;
26106;SDS011;13866;50.748;12.630;2022-12-17T16:43:22;40.35;;;26.55;;
26106;SDS011;13866;50.748;12.630;2022-12-17T16:45:49;34.30;;;23.70;;